sensor_id;sensor_type;location;lat;lon;timestamp;pressure;altitude;pressure_sealevel;temperature;humidity
48630;BME280;34426;52.180;4.462;2023-04-16T00:01:30;102411.28;;;8.67;79.93
48630;BME280;34426;52.180;4.462;2023-04-16T00:03:57;102416.06;;;8.60;80.39
48630;BME280;34426;52.180;4.462;2023-04-16T00:06:25;102415.84;;;8.55;79.43
48630;BME280;34426;52.180;4.462;2023-04-16T00:08:52;102422.72;;;8.59;79.60
48630;BME280;34426;52.180;4.462;2023-04-16T00:11:21;102424.41;;;8.60;78.19
48630;BME280;34426;52.180;4.462;2023-04-16T00:13:49;102427.16;;;8.74;78.18
48630;BME280;34426;52.180;4.462;2023-04-16T00:16:16;102425.25;;;8.67;79.58
48630;BME280;34426;52.180;4.462;2023-04-16T00:18:44;102426.31;;;8.66;78.92
48630;BME280;34426;52.180;4.462;2023-04-16T00:21:11;102424.38;;;8.74;80.07
48630;BME280;34426;52.180;4.462;2023-04-16T00:23:39;102419.44;;;8.69;79.38
48630;BME280;34426;52.180;4.462;2023-04-16T00:26:06;102423.97;;;8.70;79.22
48630;BME280;34426;52.180;4.462;2023-04-16T00:28:36;102422.88;;;8.78;78.79
48630;BME280;34426;52.180;4.462;2023-04-16T00:31:03;102429.53;;;8.77;79.36
48630;BME280;34426;52.180;4.462;2023-04-16T00:33:30;102425.44;;;8.73;79.09
48630;BME280;34426;52.180;4.462;2023-04-16T00:35:58;102417.28;;;8.78;79.98
48630;BME280;34426;52.180;4.462;2023-04-16T00:38:25;102417.50;;;8.76;80.11
48630;BME280;34426;52.180;4.462;2023-04-16T00:40:52;102408.69;;;8.86;79.63
48630;BME280;34426;52.180;4.462;2023-04-16T00:43:23;102407.84;;;8.85;79.38
48630;BME280;34426;52.180;4.462;2023-04-16T00:45:54;102410.19;;;8.82;78.62
48630;BME280;34426;52.180;4.462;2023-04-16T00:48:22;102409.13;;;8.76;79.70
48630;BME280;34426;52.180;4.462;2023-04-16T00:50:51;102406.13;;;8.78;79.05
48630;BME280;34426;52.180;4.462;2023-04-16T00:53:18;102416.44;;;8.77;79.29
48630;BME280;34426;52.180;4.462;2023-04-16T00:55:46;102430.22;;;8.65;79.90
48630;BME280;34426;52.180;4.462;2023-04-16T00:58:13;102418.63;;;8.62;81.18
48630;BME280;34426;52.180;4.462;2023-04-16T01:00:41;102419.06;;;8.59;80.04
48630;BME280;34426;52.180;4.462;2023-04-16T01:03:10;102415.38;;;8.72;80.04
48630;BME280;34426;52.180;4.462;2023-04-16T01:05:37;102418.81;;;8.74;79.14
48630;BME280;34426;52.180;4.462;2023-04-16T01:08:05;102420.94;;;8.72;79.80
48630;BME280;34426;52.180;4.462;2023-04-16T01:10:32;102422.69;;;8.66;79.73
48630;BME280;34426;52.180;4.462;2023-04-16T01:13:00;102421.19;;;8.63;78.90
48630;BME280;34426;52.180;4.462;2023-04-16T01:15:27;102428.47;;;8.71;79.43
48630;BME280;34426;52.180;4.462;2023-04-16T01:17:55;102413.22;;;8.74;79.29
48630;BME280;34426;52.180;4.462;2023-04-16T01:20:24;102425.06;;;8.62;79.44
48630;BME280;34426;52.180;4.462;2023-04-16T01:22:53;102424.22;;;8.62;79.18
48630;BME280;34426;52.180;4.462;2023-04-16T01:25:21;102427.22;;;8.60;79.98
48630;BME280;34426;52.180;4.462;2023-04-16T01:27:49;102430.22;;;8.52;80.45
48630;BME280;34426;52.180;4.462;2023-04-16T01:30:17;102424.22;;;8.55;78.98
48630;BME280;34426;52.180;4.462;2023-04-16T01:32:44;102426.78;;;8.50;80.29
48630;BME280;34426;52.180;4.462;2023-04-16T01:35:11;102422.50;;;8.48;80.44
48630;BME280;34426;52.180;4.462;2023-04-16T01:37:39;102424.22;;;8.55;80.54
48630;BME280;34426;52.180;4.462;2023-04-16T01:40:09;102423.34;;;8.55;80.64
48630;BME280;34426;52.180;4.462;2023-04-16T01:42:37;102423.78;;;8.58;81.02
48630;BME280;34426;52.180;4.462;2023-04-16T01:45:05;102428.50;;;8.64;80.45
48630;BME280;34426;52.180;4.462;2023-04-16T01:47:33;102424.63;;;8.65;80.22
48630;BME280;34426;52.180;4.462;2023-04-16T01:50:00;102426.78;;;8.63;80.27
48630;BME280;34426;52.180;4.462;2023-04-16T01:52:27;102423.34;;;8.61;80.08
48630;BME280;34426;52.180;4.462;2023-04-16T01:54:55;102437.47;;;8.66;79.99
48630;BME280;34426;52.180;4.462;2023-04-16T01:57:24;102434.94;;;8.58;80.40
48630;BME280;34426;52.180;4.462;2023-04-16T01:59:51;102432.56;;;8.42;80.60
48630;BME280;34426;52.180;4.462;2023-04-16T02:02:19;102431.72;;;8.48;80.95
48630;BME280;34426;52.180;4.462;2023-04-16T02:04:47;102430.44;;;8.51;80.74
48630;BME280;34426;52.180;4.462;2023-04-16T02:07:14;102439.22;;;8.48;80.97
48630;BME280;34426;52.180;4.462;2023-04-16T02:09:41;102437.09;;;8.43;81.41
48630;BME280;34426;52.180;4.462;2023-04-16T02:12:09;102429.78;;;8.55;80.75
48630;BME280;34426;52.180;4.462;2023-04-16T02:14:38;102431.06;;;8.59;80.12
48630;BME280;34426;52.180;4.462;2023-04-16T02:17:05;102441.38;;;8.52;80.69
48630;BME280;34426;52.180;4.462;2023-04-16T02:19:32;102434.94;;;8.45;81.53
48630;BME280;34426;52.180;4.462;2023-04-16T02:22:00;102442.66;;;8.56;80.81
48630;BME280;34426;52.180;4.462;2023-04-16T02:24:27;102439.44;;;8.53;81.82
48630;BME280;34426;52.180;4.462;2023-04-16T02:26:55;102442.22;;;8.46;81.73
48630;BME280;34426;52.180;4.462;2023-04-16T02:29:22;102442.22;;;8.40;82.23
48630;BME280;34426;52.180;4.462;2023-04-16T02:31:52;102448.44;;;8.42;81.63
48630;BME280;34426;52.180;4.462;2023-04-16T02:34:19;102446.53;;;8.42;81.57
48630;BME280;34426;52.180;4.462;2023-04-16T02:36:46;102448.03;;;8.38;82.60
48630;BME280;34426;52.180;4.462;2023-04-16T02:39:14;102447.38;;;8.36;81.77
48630;BME280;34426;52.180;4.462;2023-04-16T02:41:41;102453.78;;;8.30;82.87
48630;BME280;34426;52.180;4.462;2023-04-16T02:44:08;102444.53;;;8.29;83.48
48630;BME280;34426;52.180;4.462;2023-04-16T02:46:35;102445.19;;;8.25;83.82
48630;BME280;34426;52.180;4.462;2023-04-16T02:49:04;102452.94;;;8.23;83.82
48630;BME280;34426;52.180;4.462;2023-04-16T02:51:32;102452.06;;;8.16;84.68
48630;BME280;34426;52.180;4.462;2023-04-16T02:53:59;102455.50;;;8.11;85.30
48630;BME280;34426;52.180;4.462;2023-04-16T02:56:27;102443.06;;;8.07;85.67
48630;BME280;34426;52.180;4.462;2023-04-16T02:58:54;102446.91;;;8.13;85.40
48630;BME280;34426;52.180;4.462;2023-04-16T03:01:22;102444.78;;;8.15;85.00
48630;BME280;34426;52.180;4.462;2023-04-16T03:03:49;102438.13;;;8.16;85.24
48630;BME280;34426;52.180;4.462;2023-04-16T03:06:18;102446.28;;;8.11;85.11
48630;BME280;34426;52.180;4.462;2023-04-16T03:08:45;102444.34;;;8.18;85.41
48630;BME280;34426;52.180;4.462;2023-04-16T03:11:13;102456.78;;;8.22;85.15
48630;BME280;34426;52.180;4.462;2023-04-16T03:13:40;102452.06;;;8.22;85.29
48630;BME280;34426;52.180;4.462;2023-04-16T03:16:08;102454.84;;;8.09;86.04
48630;BME280;34426;52.180;4.462;2023-04-16T03:18:36;102453.34;;;8.07;86.30
48630;BME280;34426;52.180;4.462;2023-04-16T03:21:03;102457.84;;;8.08;86.53
48630;BME280;34426;52.180;4.462;2023-04-16T03:23:32;102450.75;;;7.98;86.96
48630;BME280;34426;52.180;4.462;2023-04-16T03:26:00;102455.25;;;7.99;87.58
48630;BME280;34426;52.180;4.462;2023-04-16T03:28:27;102460.19;;;8.04;87.74
48630;BME280;34426;52.180;4.462;2023-04-16T03:30:55;102456.78;;;8.09;86.89
48630;BME280;34426;52.180;4.462;2023-04-16T03:33:22;102457.41;;;8.11;86.86
48630;BME280;34426;52.180;4.462;2023-04-16T03:35:55;102461.06;;;8.05;87.14
48630;BME280;34426;52.180;4.462;2023-04-16T03:38:21;102462.53;;;8.00;87.44
48630;BME280;34426;52.180;4.462;2023-04-16T03:40:50;102462.75;;;8.06;86.86
48630;BME280;34426;52.180;4.462;2023-04-16T03:43:18;102461.69;;;8.07;87.19
48630;BME280;34426;52.180;4.462;2023-04-16T03:45:48;102458.69;;;8.01;87.65
48630;BME280;34426;52.180;4.462;2023-04-16T03:48:16;102462.75;;;8.06;87.40
48630;BME280;34426;52.180;4.462;2023-04-16T03:50:45;102457.84;;;8.14;87.02
48630;BME280;34426;52.180;4.462;2023-04-16T03:53:13;102465.31;;;8.00;88.02
48630;BME280;34426;52.180;4.462;2023-04-16T03:55:40;102455.06;;;8.08;87.86
48630;BME280;34426;52.180;4.462;2023-04-16T03:58:09;102456.78;;;8.09;88.21
48630;BME280;34426;52.180;4.462;2023-04-16T04:00:37;102466.41;;;8.06;88.16
48630;BME280;34426;52.180;4.462;2023-04-16T04:03:07;102455.03;;;7.94;88.61
48630;BME280;34426;52.180;4.462;2023-04-16T04:05:36;102458.47;;;7.96;87.98
48630;BME280;34426;52.180;4.462;2023-04-16T04:08:04;102466.41;;;7.99;88.23
48630;BME280;34426;52.180;4.462;2023-04-16T04:10:32;102459.72;;;7.87;88.57
48630;BME280;34426;52.180;4.462;2023-04-16T04:12:59;102456.75;;;7.95;88.96
48630;BME280;34426;52.180;4.462;2023-04-16T04:15:28;102468.56;;;8.04;88.58
48630;BME280;34426;52.180;4.462;2023-04-16T04:17:55;102464.47;;;8.07;88.85
48630;BME280;34426;52.180;4.462;2023-04-16T04:20:22;102456.09;;;8.00;88.57
48630;BME280;34426;52.180;4.462;2023-04-16T04:22:50;102455.06;;;8.08;89.04
48630;BME280;34426;52.180;4.462;2023-04-16T04:25:17;102457.63;;;8.02;88.68
48630;BME280;34426;52.180;4.462;2023-04-16T04:27:45;102463.16;;;7.96;88.53
48630;BME280;34426;52.180;4.462;2023-04-16T04:30:12;102466.19;;;8.01;88.52
48630;BME280;34426;52.180;4.462;2023-04-16T04:32:42;102462.34;;;8.02;87.83
48630;BME280;34426;52.180;4.462;2023-04-16T04:35:10;102466.63;;;8.05;87.78
48630;BME280;34426;52.180;4.462;2023-04-16T04:37:37;102468.31;;;7.92;89.52
48630;BME280;34426;52.180;4.462;2023-04-16T04:40:06;102474.53;;;8.01;89.31
48630;BME280;34426;52.180;4.462;2023-04-16T04:42:33;102472.16;;;7.91;88.56
48630;BME280;34426;52.180;4.462;2023-04-16T04:45:00;102478.63;;;8.05;89.15
48630;BME280;34426;52.180;4.462;2023-04-16T04:47:28;102480.31;;;7.99;87.99
48630;BME280;34426;52.180;4.462;2023-04-16T04:49:57;102479.06;;;8.09;89.00
48630;BME280;34426;52.180;4.462;2023-04-16T04:52:24;102484.41;;;8.04;88.66
48630;BME280;34426;52.180;4.462;2023-04-16T04:54:51;102477.34;;;8.01;87.95
48630;BME280;34426;52.180;4.462;2023-04-16T04:57:19;102474.34;;;8.02;88.68
48630;BME280;34426;52.180;4.462;2023-04-16T04:59:46;102484.22;;;8.12;88.93
48630;BME280;34426;52.180;4.462;2023-04-16T05:02:14;102479.06;;;8.02;88.82
48630;BME280;34426;52.180;4.462;2023-04-16T05:04:41;102477.38;;;8.14;88.90
48630;BME280;34426;52.180;4.462;2023-04-16T05:07:10;102486.16;;;8.18;89.44
48630;BME280;34426;52.180;4.462;2023-04-16T05:09:38;102479.28;;;8.14;88.07
48630;BME280;34426;52.180;4.462;2023-04-16T05:12:05;102491.28;;;8.08;88.79
48630;BME280;34426;52.180;4.462;2023-04-16T05:14:32;102485.50;;;8.09;88.66
48630;BME280;34426;52.180;4.462;2023-04-16T05:17:00;102486.78;;;8.07;88.42
48630;BME280;34426;52.180;4.462;2023-04-16T05:19:27;102487.00;;;8.12;89.53
48630;BME280;34426;52.180;4.462;2023-04-16T05:21:54;102494.94;;;8.08;89.28
48630;BME280;34426;52.180;4.462;2023-04-16T05:24:23;102487.66;;;8.14;89.03
48630;BME280;34426;52.180;4.462;2023-04-16T05:26:51;102492.78;;;8.10;88.64
48630;BME280;34426;52.180;4.462;2023-04-16T05:29:18;102500.09;;;8.11;89.33
48630;BME280;34426;52.180;4.462;2023-04-16T05:31:45;102497.50;;;8.10;89.11
48630;BME280;34426;52.180;4.462;2023-04-16T05:34:13;102494.97;;;8.21;88.61
48630;BME280;34426;52.180;4.462;2023-04-16T05:36:40;102505.66;;;8.18;88.68
48630;BME280;34426;52.180;4.462;2023-04-16T05:39:07;102499.22;;;8.11;88.60
48630;BME280;34426;52.180;4.462;2023-04-16T05:41:37;102505.22;;;8.14;88.94
48630;BME280;34426;52.180;4.462;2023-04-16T05:44:04;102507.16;;;8.14;88.78
48630;BME280;34426;52.180;4.462;2023-04-16T05:46:31;102507.81;;;8.16;89.72
48630;BME280;34426;52.180;4.462;2023-04-16T05:48:59;102515.53;;;8.20;88.01
48630;BME280;34426;52.180;4.462;2023-04-16T05:51:26;102508.88;;;8.15;88.91
48630;BME280;34426;52.180;4.462;2023-04-16T05:53:53;102502.22;;;8.16;89.15
48630;BME280;34426;52.180;4.462;2023-04-16T05:56:21;102508.25;;;8.19;89.65
48630;BME280;34426;52.180;4.462;2023-04-16T05:58:50;102506.53;;;8.18;89.97
48630;BME280;34426;52.180;4.462;2023-04-16T06:01:18;102510.38;;;8.24;89.59
48630;BME280;34426;52.180;4.462;2023-04-16T06:03:45;102508.69;;;8.23;89.57
48630;BME280;34426;52.180;4.462;2023-04-16T06:06:12;102508.22;;;8.26;89.28
48630;BME280;34426;52.180;4.462;2023-04-16T06:08:40;102510.81;;;8.21;89.96
48630;BME280;34426;52.180;4.462;2023-04-16T06:11:06;102515.72;;;8.25;90.09
48630;BME280;34426;52.180;4.462;2023-04-16T06:13:34;102516.41;;;8.21;90.08
48630;BME280;34426;52.180;4.462;2023-04-16T06:16:03;102517.25;;;8.28;89.27
48630;BME280;34426;52.180;4.462;2023-04-16T06:18:31;102520.44;;;8.25;90.54
48630;BME280;34426;52.180;4.462;2023-04-16T06:20:58;102518.09;;;8.28;90.78
48630;BME280;34426;52.180;4.462;2023-04-16T06:23:26;102522.84;;;8.21;90.35
48630;BME280;34426;52.180;4.462;2023-04-16T06:25:53;102524.97;;;8.26;90.01
48630;BME280;34426;52.180;4.462;2023-04-16T06:28:21;102511.66;;;8.15;90.13
48630;BME280;34426;52.180;4.462;2023-04-16T06:30:48;102526.22;;;8.23;89.87
48630;BME280;34426;52.180;4.462;2023-04-16T06:33:17;102526.03;;;8.25;90.50
48630;BME280;34426;52.180;4.462;2023-04-16T06:35:44;102533.09;;;8.27;91.19
48630;BME280;34426;52.180;4.462;2023-04-16T06:38:11;102529.88;;;8.24;90.82
48630;BME280;34426;52.180;4.462;2023-04-16T06:40:39;102540.63;;;8.20;91.30
48630;BME280;34426;52.180;4.462;2023-04-16T06:43:06;102536.09;;;8.26;90.55
48630;BME280;34426;52.180;4.462;2023-04-16T06:45:33;102539.78;;;8.20;91.33
48630;BME280;34426;52.180;4.462;2023-04-16T06:48:00;102546.00;;;8.22;90.42
48630;BME280;34426;52.180;4.462;2023-04-16T06:50:30;102544.69;;;8.18;91.51
48630;BME280;34426;52.180;4.462;2023-04-16T06:52:57;102547.25;;;8.26;91.08
48630;BME280;34426;52.180;4.462;2023-04-16T06:55:24;102552.19;;;8.24;91.12
48630;BME280;34426;52.180;4.462;2023-04-16T06:57:52;102548.31;;;8.25;91.74
48630;BME280;34426;52.180;4.462;2023-04-16T07:00:19;102548.31;;;8.25;90.48
48630;BME280;34426;52.180;4.462;2023-04-16T07:02:46;102549.19;;;8.19;90.52
48630;BME280;34426;52.180;4.462;2023-04-16T07:05:13;102558.00;;;8.22;90.58
48630;BME280;34426;52.180;4.462;2023-04-16T07:07:43;102556.69;;;8.25;91.83
48630;BME280;34426;52.180;4.462;2023-04-16T07:10:10;102557.13;;;8.22;91.69
48630;BME280;34426;52.180;4.462;2023-04-16T07:12:38;102550.69;;;8.28;91.32
48630;BME280;34426;52.180;4.462;2023-04-16T07:15:06;102562.13;;;8.40;91.69
48630;BME280;34426;52.180;4.462;2023-04-16T07:17:34;102555.84;;;8.31;91.17
48630;BME280;34426;52.180;4.462;2023-04-16T07:20:01;102561.03;;;8.34;91.20
48630;BME280;34426;52.180;4.462;2023-04-16T07:22:28;102557.41;;;8.40;91.01
48630;BME280;34426;52.180;4.462;2023-04-16T07:24:57;102559.97;;;8.42;90.87
48630;BME280;34426;52.180;4.462;2023-04-16T07:27:25;102561.50;;;8.44;90.50
48630;BME280;34426;52.180;4.462;2023-04-16T07:29:52;102566.63;;;8.47;91.26
48630;BME280;34426;52.180;4.462;2023-04-16T07:32:20;102571.38;;;8.47;90.70
48630;BME280;34426;52.180;4.462;2023-04-16T07:34:48;102562.78;;;8.48;90.15
48630;BME280;34426;52.180;4.462;2023-04-16T07:37:15;102566.88;;;8.52;90.08
48630;BME280;34426;52.180;4.462;2023-04-16T07:39:42;102564.06;;;8.52;90.90
48630;BME280;34426;52.180;4.462;2023-04-16T07:42:14;102573.09;;;8.54;89.95
48630;BME280;34426;52.180;4.462;2023-04-16T07:44:42;102570.53;;;8.59;90.11
48630;BME280;34426;52.180;4.462;2023-04-16T07:47:09;102576.31;;;8.64;89.72
48630;BME280;34426;52.180;4.462;2023-04-16T07:49:37;102580.63;;;8.60;89.82
48630;BME280;34426;52.180;4.462;2023-04-16T07:52:04;102581.69;;;8.59;89.47
48630;BME280;34426;52.180;4.462;2023-04-16T07:54:31;102588.97;;;8.60;89.04
48630;BME280;34426;52.180;4.462;2023-04-16T07:56:59;102591.34;;;8.63;88.71
48630;BME280;34426;52.180;4.462;2023-04-16T07:59:28;102592.00;;;8.65;88.85
48630;BME280;34426;52.180;4.462;2023-04-16T08:01:55;102593.06;;;8.64;88.84
48630;BME280;34426;52.180;4.462;2023-04-16T08:04:23;102588.34;;;8.58;90.06
48630;BME280;34426;52.180;4.462;2023-04-16T08:06:50;102591.75;;;8.54;89.34
48630;BME280;34426;52.180;4.462;2023-04-16T08:09:18;102593.25;;;8.56;89.24
48630;BME280;34426;52.180;4.462;2023-04-16T08:11:46;102609.53;;;8.46;89.17
48630;BME280;34426;52.180;4.462;2023-04-16T08:14:13;102603.13;;;8.52;88.90
48630;BME280;34426;52.180;4.462;2023-04-16T08:16:42;102609.97;;;8.43;89.44
48630;BME280;34426;52.180;4.462;2023-04-16T08:19:10;102609.13;;;8.49;90.08
48630;BME280;34426;52.180;4.462;2023-04-16T08:21:37;102610.00;;;8.56;90.20
48630;BME280;34426;52.180;4.462;2023-04-16T08:24:08;102604.22;;;8.64;89.71
48630;BME280;34426;52.180;4.462;2023-04-16T08:26:36;102612.78;;;8.70;89.08
48630;BME280;34426;52.180;4.462;2023-04-16T08:29:12;102611.72;;;8.71;89.76
48630;BME280;34426;52.180;4.462;2023-04-16T08:34:24;102622.03;;;8.77;89.33
48630;BME280;34426;52.180;4.462;2023-04-16T08:36:52;102615.16;;;8.86;90.02
48630;BME280;34426;52.180;4.462;2023-04-16T08:39:20;102618.59;;;8.88;88.15
48630;BME280;34426;52.180;4.462;2023-04-16T08:41:47;102620.13;;;8.97;88.05
48630;BME280;34426;52.180;4.462;2023-04-16T08:44:20;102618.19;;;9.04;87.54
48630;BME280;34426;52.180;4.462;2023-04-16T08:46:51;102623.34;;;9.00;87.07
48630;BME280;34426;52.180;4.462;2023-04-16T08:49:19;102623.31;;;9.14;87.38
48630;BME280;34426;52.180;4.462;2023-04-16T08:51:50;102629.34;;;9.04;86.86
48630;BME280;34426;52.180;4.462;2023-04-16T08:54:25;102630.66;;;9.08;88.40
48630;BME280;34426;52.180;4.462;2023-04-16T08:56:57;102640.94;;;8.94;86.89
48630;BME280;34426;52.180;4.462;2023-04-16T08:59:25;102631.50;;;8.89;87.62
48630;BME280;34426;52.180;4.462;2023-04-16T09:01:56;102634.72;;;8.99;87.07
48630;BME280;34426;52.180;4.462;2023-04-16T09:04:25;102635.56;;;8.93;87.30
48630;BME280;34426;52.180;4.462;2023-04-16T09:06:53;102633.66;;;9.00;87.07
48630;BME280;34426;52.180;4.462;2023-04-16T09:09:21;102637.09;;;9.02;86.37
48630;BME280;34426;52.180;4.462;2023-04-16T09:11:50;102637.28;;;8.94;87.32
48630;BME280;34426;52.180;4.462;2023-04-16T09:14:18;102647.81;;;9.05;86.52
48630;BME280;34426;52.180;4.462;2023-04-16T09:16:46;102641.81;;;8.95;86.41
48630;BME280;34426;52.180;4.462;2023-04-16T09:19:15;102641.16;;;8.99;86.73
48630;BME280;34426;52.180;4.462;2023-04-16T09:21:45;102643.53;;;8.96;86.67
48630;BME280;34426;52.180;4.462;2023-04-16T09:24:13;102648.25;;;9.02;86.10
48630;BME280;34426;52.180;4.462;2023-04-16T09:26:41;102649.97;;;9.10;85.74
48630;BME280;34426;52.180;4.462;2023-04-16T09:29:09;102649.97;;;9.03;86.17
48630;BME280;34426;52.180;4.462;2023-04-16T09:31:36;102646.97;;;9.05;86.40
48630;BME280;34426;52.180;4.462;2023-04-16T09:34:07;102649.75;;;9.05;86.02
48630;BME280;34426;52.180;4.462;2023-04-16T09:36:37;102656.63;;;9.02;86.63
48630;BME280;34426;52.180;4.462;2023-04-16T09:39:04;102655.31;;;9.11;87.05
48630;BME280;34426;52.180;4.462;2023-04-16T09:41:33;102658.13;;;9.18;86.88
48630;BME280;34426;52.180;4.462;2023-04-16T09:44:01;102658.56;;;9.08;87.23
48630;BME280;34426;52.180;4.462;2023-04-16T09:46:31;102669.28;;;9.11;86.65
48630;BME280;34426;52.180;4.462;2023-04-16T09:49:04;102666.94;;;9.08;87.34
48630;BME280;34426;52.180;4.462;2023-04-16T09:51:40;102665.63;;;9.17;86.70
48630;BME280;34426;52.180;4.462;2023-04-16T09:54:08;102669.28;;;9.11;85.22
48630;BME280;34426;52.180;4.462;2023-04-16T09:56:43;102665.00;;;9.09;85.92
48630;BME280;34426;52.180;4.462;2023-04-16T09:59:16;102670.34;;;9.10;85.66
48630;BME280;34426;52.180;4.462;2023-04-16T10:01:43;102671.84;;;9.13;85.53
48630;BME280;34426;52.180;4.462;2023-04-16T10:04:11;102674.88;;;9.24;85.54
48630;BME280;34426;52.180;4.462;2023-04-16T10:06:40;102678.72;;;9.23;85.98
48630;BME280;34426;52.180;4.462;2023-04-16T10:09:08;102678.94;;;9.22;86.02
48630;BME280;34426;52.180;4.462;2023-04-16T10:11:35;102676.81;;;9.30;85.07
48630;BME280;34426;52.180;4.462;2023-04-16T10:14:02;102682.16;;;9.25;85.12
48630;BME280;34426;52.180;4.462;2023-04-16T10:16:30;102683.03;;;9.32;84.42
48630;BME280;34426;52.180;4.462;2023-04-16T10:18:58;102684.75;;;9.20;85.33
48630;BME280;34426;52.180;4.462;2023-04-16T10:21:26;102689.47;;;9.33;84.70
48630;BME280;34426;52.180;4.462;2023-04-16T10:23:55;102686.25;;;9.43;83.97
48630;BME280;34426;52.180;4.462;2023-04-16T10:26:23;102691.00;;;9.42;84.88
48630;BME280;34426;52.180;4.462;2023-04-16T10:28:51;102690.78;;;9.44;85.28
48630;BME280;34426;52.180;4.462;2023-04-16T10:31:19;102692.06;;;9.34;85.25
48630;BME280;34426;52.180;4.462;2023-04-16T10:33:47;102689.69;;;9.38;85.37
48630;BME280;34426;52.180;4.462;2023-04-16T10:36:22;102694.22;;;9.46;85.14
48630;BME280;34426;52.180;4.462;2023-04-16T10:38:50;102695.28;;;9.45;83.64
48630;BME280;34426;52.180;4.462;2023-04-16T10:41:20;102697.22;;;9.38;84.41
48630;BME280;34426;52.180;4.462;2023-04-16T10:43:48;102694.63;;;9.43;84.11
48630;BME280;34426;52.180;4.462;2023-04-16T10:46:22;102693.97;;;9.54;84.26
48630;BME280;34426;52.180;4.462;2023-04-16T10:48:52;102696.75;;;9.54;83.34
48630;BME280;34426;52.180;4.462;2023-04-16T10:51:31;102698.03;;;9.64;83.08
48630;BME280;34426;52.180;4.462;2023-04-16T10:54:03;102696.75;;;9.67;83.25
48630;BME280;34426;52.180;4.462;2023-04-16T10:56:48;102700.19;;;9.56;82.91
48630;BME280;34426;52.180;4.462;2023-04-16T10:59:18;102699.13;;;9.57;83.95
48630;BME280;34426;52.180;4.462;2023-04-16T11:01:46;102698.69;;;9.53;84.77
48630;BME280;34426;52.180;4.462;2023-04-16T11:04:36;102698.47;;;9.68;84.23
48630;BME280;34426;52.180;4.462;2023-04-16T11:07:06;102698.03;;;9.71;83.31
48630;BME280;34426;52.180;4.462;2023-04-16T11:09:49;102702.75;;;9.77;83.17
48630;BME280;34426;52.180;4.462;2023-04-16T11:12:19;102695.44;;;9.89;82.14
48630;BME280;34426;52.180;4.462;2023-04-16T11:14:49;102697.16;;;9.90;82.05
48630;BME280;34426;52.180;4.462;2023-04-16T11:17:18;102695.44;;;9.76;82.44
48630;BME280;34426;52.180;4.462;2023-04-16T11:19:46;102699.13;;;9.70;83.90
48630;BME280;34426;52.180;4.462;2023-04-16T11:22:15;102694.38;;;9.64;83.48
48630;BME280;34426;52.180;4.462;2023-04-16T11:24:42;102697.19;;;9.64;84.24
48630;BME280;34426;52.180;4.462;2023-04-16T11:27:12;102698.47;;;9.81;83.22
48630;BME280;34426;52.180;4.462;2023-04-16T11:29:41;102693.50;;;9.83;83.71
48630;BME280;34426;52.180;4.462;2023-04-16T11:32:09;102704.06;;;9.81;83.73
48630;BME280;34426;52.180;4.462;2023-04-16T11:34:43;102694.16;;;9.85;83.34
48630;BME280;34426;52.180;4.462;2023-04-16T11:37:11;102697.78;;;9.92;83.11
48630;BME280;34426;52.180;4.462;2023-04-16T11:39:50;102696.50;;;9.88;82.95
48630;BME280;34426;52.180;4.462;2023-04-16T11:42:21;102697.38;;;9.95;83.00
48630;BME280;34426;52.180;4.462;2023-04-16T11:44:54;102691.94;;;10.00;82.70
48630;BME280;34426;52.180;4.462;2023-04-16T11:47:21;102690.66;;;10.03;82.87
48630;BME280;34426;52.180;4.462;2023-04-16T11:49:48;102699.25;;;10.01;83.20
48630;BME280;34426;52.180;4.462;2023-04-16T11:52:25;102691.47;;;10.17;83.62
48630;BME280;34426;52.180;4.462;2023-04-16T11:54:53;102698.28;;;10.41;82.25
48630;BME280;34426;52.180;4.462;2023-04-16T11:57:30;102685.56;;;10.45;81.53
48630;BME280;34426;52.180;4.462;2023-04-16T12:00:00;102695.97;;;10.38;80.68
48630;BME280;34426;52.180;4.462;2023-04-16T12:02:37;102694.03;;;10.38;81.63
48630;BME280;34426;52.180;4.462;2023-04-16T12:05:05;102694.03;;;10.38;81.45
48630;BME280;34426;52.180;4.462;2023-04-16T12:07:43;102701.78;;;10.36;81.80
48630;BME280;34426;52.180;4.462;2023-04-16T12:10:11;102704.56;;;10.36;81.81
48630;BME280;34426;52.180;4.462;2023-04-16T12:12:38;102704.13;;;10.39;81.61
48630;BME280;34426;52.180;4.462;2023-04-16T12:15:08;102706.44;;;10.42;81.62
48630;BME280;34426;52.180;4.462;2023-04-16T12:17:36;102710.81;;;10.38;80.52
48630;BME280;34426;52.180;4.462;2023-04-16T12:20:08;102702.66;;;10.17;81.78
48630;BME280;34426;52.180;4.462;2023-04-16T12:22:37;102710.41;;;10.28;82.54
48630;BME280;34426;52.180;4.462;2023-04-16T12:25:05;102709.75;;;10.26;81.25
48630;BME280;34426;52.180;4.462;2023-04-16T12:27:44;102714.06;;;10.22;82.54
48630;BME280;34426;52.180;4.462;2023-04-16T12:30:16;102712.09;;;10.36;81.75
48630;BME280;34426;52.180;4.462;2023-04-16T12:32:45;102709.53;;;10.34;81.10
48630;BME280;34426;52.180;4.462;2023-04-16T12:35:13;102713.41;;;10.33;81.09
48630;BME280;34426;52.180;4.462;2023-04-16T12:37:54;102715.56;;;10.18;82.74
48630;BME280;34426;52.180;4.462;2023-04-16T12:40:21;102714.06;;;10.22;82.41
48630;BME280;34426;52.180;4.462;2023-04-16T12:42:48;102705.25;;;10.25;82.40
48630;BME280;34426;52.180;4.462;2023-04-16T12:45:18;102712.13;;;10.22;82.01
48630;BME280;34426;52.180;4.462;2023-04-16T12:47:45;102708.47;;;10.22;81.53
48630;BME280;34426;52.180;4.462;2023-04-16T12:50:13;102712.13;;;10.22;81.39
48630;BME280;34426;52.180;4.462;2023-04-16T12:52:40;102715.13;;;10.14;82.01
48630;BME280;34426;52.180;4.462;2023-04-16T12:55:08;102715.56;;;10.18;81.73
48630;BME280;34426;52.180;4.462;2023-04-16T12:57:36;102711.72;;;10.06;81.51
48630;BME280;34426;52.180;4.462;2023-04-16T13:00:04;102717.06;;;10.14;82.52
48630;BME280;34426;52.180;4.462;2023-04-16T13:02:34;102717.28;;;10.32;81.56
48630;BME280;34426;52.180;4.462;2023-04-16T13:05:01;102716.63;;;10.37;81.92
48630;BME280;34426;52.180;4.462;2023-04-16T13:07:29;102712.69;;;10.44;81.12
48630;BME280;34426;52.180;4.462;2023-04-16T13:09:56;102707.94;;;10.51;80.78